createdAt,value
2018-11-22T00:00:55.678Z,0
2018-11-22T00:02:04.571Z,0
2018-11-22T00:03:13.210Z,0
2018-11-22T00:04:21.836Z,0
2018-11-22T00:05:30.750Z,0
2018-11-22T00:06:39.384Z,0
2018-11-22T00:07:48.023Z,0
2018-11-22T00:08:56.649Z,0
2018-11-22T00:10:05.289Z,0
2018-11-22T00:11:13.930Z,0
2018-11-22T00:12:22.566Z,0
2018-11-22T00:13:31.204Z,0
2018-11-22T00:14:39.829Z,0
2018-11-22T00:15:48.470Z,0
2018-11-22T00:16:57.102Z,0
2018-11-22T00:18:05.747Z,0
2018-11-22T00:19:14.379Z,0
2018-11-22T00:20:23.287Z,0
2018-11-22T00:21:31.923Z,0
2018-11-22T00:22:40.821Z,0
2018-11-22T00:23:49.452Z,0
2018-11-22T00:24:58.350Z,0
2018-11-22T00:26:07.247Z,0
2018-11-22T00:27:15.892Z,0
2018-11-22T00:28:24.523Z,0
2018-11-22T00:29:33.159Z,0
2018-11-22T00:30:41.793Z,0
2018-11-22T00:31:50.700Z,0
2018-11-22T00:32:59.339Z,0
2018-11-22T00:34:07.976Z,0
2018-11-22T00:35:16.610Z,0
2018-11-22T00:36:25.244Z,0
2018-11-22T00:37:33.882Z,0
2018-11-22T00:38:42.518Z,0
2018-11-22T00:39:51.154Z,0
2018-11-22T00:40:59.787Z,0
2018-11-22T00:42:08.689Z,0
2018-11-22T00:43:17.320Z,0
2018-11-22T00:44:26.219Z,0
2018-11-22T00:45:34.849Z,0
2018-11-22T00:46:43.756Z,0
2018-11-22T00:47:52.387Z,0
2018-11-22T00:49:01.032Z,0
2018-11-22T00:50:09.671Z,0
2018-11-22T00:51:18.300Z,0
2018-11-22T00:52:26.941Z,0
2018-11-22T00:53:35.573Z,0
2018-11-22T00:54:44.217Z,0
2018-11-22T00:55:52.847Z,0
2018-11-22T00:57:01.489Z,0
2018-11-22T00:58:10.117Z,0
2018-11-22T00:59:18.759Z,0
2018-11-22T01:00:27.649Z,0
2018-11-22T01:01:36.286Z,0
2018-11-22T01:02:44.917Z,0
2018-11-22T01:03:53.551Z,0
2018-11-22T01:05:02.185Z,0
2018-11-22T01:06:10.819Z,0
2018-11-22T01:07:19.452Z,0
2018-11-22T01:08:28.084Z,0
2018-11-22T01:09:36.727Z,0
2018-11-22T01:10:45.363Z,0
2018-11-22T01:11:54.264Z,0
2018-11-22T01:13:02.893Z,0
2018-11-22T01:14:11.535Z,0
2018-11-22T01:15:20.169Z,0
2018-11-22T01:16:28.807Z,0
2018-11-22T01:17:37.446Z,0
2018-11-22T01:18:46.076Z,0
2018-11-22T01:19:54.712Z,0
2018-11-22T01:21:03.346Z,0
2018-11-22T01:22:11.984Z,0
2018-11-22T01:23:20.617Z,0
2018-11-22T01:24:29.521Z,0
2018-11-22T01:25:38.153Z,0
2018-11-22T01:26:46.786Z,0
2018-11-22T01:27:55.424Z,0
2018-11-22T01:29:04.060Z,0
2018-11-22T01:30:12.959Z,0
2018-11-22T01:31:21.585Z,0
2018-11-22T01:32:30.223Z,0
2018-11-22T01:33:38.862Z,0
2018-11-22T01:34:47.498Z,0
2018-11-22T01:35:56.131Z,0
2018-11-22T01:37:04.771Z,0
2018-11-22T01:38:13.403Z,0
2018-11-22T01:39:22.044Z,0
2018-11-22T01:40:30.674Z,0
2018-11-22T01:41:39.314Z,0
2018-11-22T01:42:47.956Z,0
2018-11-22T01:43:56.589Z,0
2018-11-22T01:45:05.228Z,0
2018-11-22T01:46:13.858Z,0
2018-11-22T01:47:22.495Z,0
2018-11-22T01:48:31.127Z,0
2018-11-22T01:49:39.768Z,0
2018-11-22T01:50:48.662Z,0
2018-11-22T01:51:57.568Z,0
2018-11-22T01:53:06.203Z,0
2018-11-22T01:54:14.842Z,0
2018-11-22T01:55:23.473Z,0
2018-11-22T01:56:32.110Z,0
2018-11-22T01:57:40.741Z,0
2018-11-22T01:58:49.383Z,0
2018-11-22T01:59:58.021Z,0
2018-11-22T02:01:06.938Z,0
2018-11-22T02:02:15.572Z,0
2018-11-22T02:03:24.205Z,0
2018-11-22T02:04:32.846Z,0
2018-11-22T02:05:41.481Z,0
2018-11-22T02:06:50.118Z,0
2018-11-22T02:07:58.751Z,0
2018-11-22T02:09:07.389Z,0
2018-11-22T02:10:16.024Z,0
2018-11-22T02:11:24.658Z,0
2018-11-22T02:12:33.293Z,0
2018-11-22T02:13:42.198Z,0
2018-11-22T02:14:50.831Z,0
2018-11-22T02:15:59.470Z,0
2018-11-22T02:17:08.095Z,0
2018-11-22T02:18:16.739Z,0
2018-11-22T02:19:25.372Z,0
2018-11-22T02:20:34.011Z,0
2018-11-22T02:21:42.646Z,0
2018-11-22T02:22:51.273Z,0
2018-11-22T02:23:59.914Z,0
2018-11-22T02:25:08.548Z,0
2018-11-22T02:26:17.198Z,0
2018-11-22T02:27:25.825Z,0
2018-11-22T02:28:34.464Z,0
2018-11-22T02:29:43.097Z,0
2018-11-22T02:30:51.743Z,0
2018-11-22T02:32:00.370Z,0
2018-11-22T02:33:09.008Z,0
2018-11-22T02:34:17.921Z,0
2018-11-22T02:35:26.566Z,0
2018-11-22T02:36:35.515Z,0
2018-11-22T02:37:44.358Z,0
2018-11-22T02:38:53.255Z,0
2018-11-22T02:40:01.888Z,0
2018-11-22T02:41:10.532Z,0
2018-11-22T02:42:19.161Z,0
2018-11-22T02:43:27.803Z,0
2018-11-22T02:44:36.430Z,0
2018-11-22T02:45:45.077Z,0
2018-11-22T02:46:53.707Z,0
2018-11-22T02:48:02.353Z,0
2018-11-22T02:49:11.251Z,0
2018-11-22T02:50:20.169Z,0
2018-11-22T02:51:28.799Z,0
2018-11-22T02:52:37.437Z,0
2018-11-22T02:53:46.062Z,0
2018-11-22T02:54:54.962Z,0
2018-11-22T02:56:03.603Z,0
2018-11-22T02:57:12.246Z,0
2018-11-22T02:58:20.887Z,0
2018-11-22T02:59:29.517Z,0
2018-11-22T03:00:38.158Z,0
2018-11-22T03:01:46.791Z,0
2018-11-22T03:02:55.435Z,0
2018-11-22T03:04:04.594Z,0
2018-11-22T03:05:13.238Z,0
2018-11-22T03:06:21.873Z,0
2018-11-22T03:07:30.783Z,0
2018-11-22T03:08:39.407Z,0
2018-11-22T03:09:48.040Z,0
2018-11-22T03:10:56.674Z,0
2018-11-22T03:12:05.320Z,0
2018-11-22T03:13:13.952Z,0
2018-11-22T03:14:23.127Z,0
2018-11-22T03:15:32.018Z,0
2018-11-22T03:16:40.654Z,0
2018-11-22T03:17:49.569Z,0
2018-11-22T03:18:58.204Z,0
2018-11-22T03:20:07.364Z,0
2018-11-22T03:21:16.008Z,0
2018-11-22T03:22:24.904Z,0
2018-11-22T03:23:33.536Z,0
2018-11-22T03:24:42.174Z,0
2018-11-22T03:25:51.073Z,0
2018-11-22T03:26:59.704Z,0
2018-11-22T03:28:08.605Z,0
2018-11-22T03:29:17.508Z,0
2018-11-22T03:30:26.151Z,0
2018-11-22T03:31:35.317Z,0
2018-11-22T03:32:44.492Z,0
2018-11-22T03:33:53.122Z,0
2018-11-22T03:35:01.757Z,0
2018-11-22T03:36:10.398Z,0
2018-11-22T03:37:19.036Z,0
2018-11-22T03:38:27.669Z,0
2018-11-22T03:39:36.312Z,0
2018-11-22T03:40:45.215Z,0
2018-11-22T03:41:53.852Z,0
2018-11-22T03:43:02.748Z,0
2018-11-22T03:44:11.374Z,0
2018-11-22T03:45:20.023Z,0
2018-11-22T03:46:28.670Z,0
2018-11-22T03:47:37.569Z,0
2018-11-22T03:48:46.463Z,0
2018-11-22T03:49:55.360Z,0
2018-11-22T03:51:03.994Z,0
2018-11-22T03:52:12.632Z,0
2018-11-22T03:53:21.537Z,0
2018-11-22T03:54:30.435Z,0
2018-11-22T03:55:39.338Z,0
2018-11-22T03:56:47.974Z,0
2018-11-22T03:57:56.881Z,0
2018-11-22T03:59:05.514Z,0
2018-11-22T04:00:14.414Z,0
2018-11-22T04:01:23.046Z,0
2018-11-22T04:02:31.690Z,0
2018-11-22T04:03:40.324Z,0
2018-11-22T04:04:49.225Z,0
2018-11-22T04:05:57.859Z,0
2018-11-22T04:07:06.759Z,0
2018-11-22T04:08:15.398Z,0
2018-11-22T04:09:24.038Z,0
2018-11-22T04:10:32.675Z,0
2018-11-22T04:11:41.570Z,0
2018-11-22T04:12:50.224Z,0
2018-11-22T04:13:59.120Z,0
2018-11-22T04:15:08.024Z,0
2018-11-22T04:16:16.650Z,0
2018-11-22T04:17:25.296Z,0
2018-11-22T04:18:34.187Z,0
2018-11-22T04:19:42.837Z,0
2018-11-22T04:20:51.728Z,0
2018-11-22T04:22:00.372Z,0
2018-11-22T04:23:09.262Z,0
2018-11-22T04:24:18.172Z,0
2018-11-22T04:25:27.071Z,0
2018-11-22T04:26:35.708Z,0
2018-11-22T04:27:44.350Z,0
2018-11-22T04:28:53.248Z,0
2018-11-22T04:30:02.420Z,0
2018-11-22T04:31:11.052Z,0
2018-11-22T04:32:19.698Z,0
2018-11-22T04:33:28.592Z,0
2018-11-22T04:34:37.241Z,0
2018-11-22T04:35:45.871Z,0
2018-11-22T04:36:54.768Z,0
2018-11-22T04:38:03.926Z,0
2018-11-22T04:39:12.828Z,0
2018-11-22T04:40:21.456Z,0
2018-11-22T04:41:30.361Z,0
2018-11-22T04:42:38.994Z,0
2018-11-22T04:43:47.642Z,0
2018-11-22T04:44:56.273Z,0
2018-11-22T04:46:04.907Z,0
2018-11-22T04:47:13.538Z,0
2018-11-22T04:48:22.436Z,0
2018-11-22T04:49:31.080Z,0
2018-11-22T04:50:39.712Z,0
2018-11-22T04:51:48.352Z,0
2018-11-22T04:52:57.240Z,0
2018-11-22T04:54:06.159Z,0
2018-11-22T04:55:15.050Z,0
2018-11-22T04:56:23.700Z,0
2018-11-22T04:57:32.328Z,0
2018-11-22T04:58:40.975Z,0
2018-11-22T04:59:49.608Z,0
2018-11-22T05:00:58.776Z,0
2018-11-22T05:02:07.404Z,0
2018-11-22T05:03:16.562Z,0
2018-11-22T05:04:30.576Z,0
2018-11-22T05:05:37.550Z,0
2018-11-22T05:06:46.205Z,0
2018-11-22T05:07:54.848Z,0
2018-11-22T05:09:03.488Z,0
2018-11-22T05:10:12.661Z,0
2018-11-22T05:11:21.308Z,0
2018-11-22T05:12:29.941Z,0
2018-11-22T05:13:38.574Z,0
2018-11-22T05:14:47.211Z,0
2018-11-22T05:15:55.839Z,0
2018-11-22T05:17:04.751Z,0
2018-11-22T05:18:13.384Z,0
2018-11-22T05:19:22.021Z,0
2018-11-22T05:20:30.652Z,0
2018-11-22T05:21:39.290Z,0
2018-11-22T05:22:47.929Z,0
2018-11-22T05:23:56.565Z,0
2018-11-22T05:25:05.201Z,0
2018-11-22T05:26:13.827Z,0
2018-11-22T05:27:22.466Z,0
2018-11-22T05:28:31.115Z,0
2018-11-22T05:29:39.759Z,0
2018-11-22T05:30:48.383Z,0
2018-11-22T05:31:57.018Z,0
2018-11-22T05:33:05.651Z,0
2018-11-22T05:34:14.300Z,0
2018-11-22T05:35:22.929Z,0
2018-11-22T05:36:31.567Z,0
2018-11-22T05:37:40.202Z,0
2018-11-22T05:38:48.844Z,0
2018-11-22T05:39:57.476Z,0
2018-11-22T05:41:06.106Z,0
2018-11-22T05:42:14.739Z,0
2018-11-22T05:43:23.377Z,0
2018-11-22T05:44:32.022Z,0
2018-11-22T05:45:40.653Z,0
2018-11-22T05:46:49.292Z,0
2018-11-22T05:47:57.918Z,0
2018-11-22T05:49:06.561Z,0
2018-11-22T05:50:15.190Z,0
2018-11-22T05:51:23.834Z,0
2018-11-22T05:52:32.718Z,0
2018-11-22T05:53:41.360Z,0
2018-11-22T05:54:49.994Z,0
2018-11-22T05:55:58.631Z,0
2018-11-22T05:57:07.258Z,0
2018-11-22T05:58:15.895Z,0
2018-11-22T05:59:24.535Z,0
2018-11-22T06:00:33.178Z,0
2018-11-22T06:01:42.086Z,0
2018-11-22T06:02:50.712Z,0
2018-11-22T06:03:59.351Z,0
2018-11-22T06:05:07.982Z,0
2018-11-22T06:06:16.627Z,0
2018-11-22T06:07:25.255Z,0
2018-11-22T06:08:33.894Z,0
2018-11-22T06:09:42.527Z,0
2018-11-22T06:10:51.170Z,0
2018-11-22T06:11:59.801Z,0
2018-11-22T06:13:08.703Z,0
2018-11-22T06:14:17.873Z,0
2018-11-22T06:15:26.511Z,0
2018-11-22T06:16:35.145Z,0
2018-11-22T06:17:43.778Z,0
2018-11-22T06:18:52.412Z,0
2018-11-22T06:20:01.045Z,0
2018-11-22T06:21:09.686Z,0
2018-11-22T06:22:18.323Z,0
2018-11-22T06:23:26.958Z,0
2018-11-22T06:24:35.856Z,0
2018-11-22T06:25:44.766Z,0
2018-11-22T06:26:53.399Z,0
2018-11-22T06:28:02.037Z,0
2018-11-22T06:29:10.935Z,4
2018-11-22T06:30:19.573Z,4
2018-11-22T06:31:28.206Z,0
2018-11-22T06:32:36.845Z,0
2018-11-22T06:33:45.475Z,0
2018-11-22T06:34:54.112Z,4
2018-11-22T06:36:02.747Z,0
2018-11-22T06:37:11.384Z,4
2018-11-22T06:38:20.021Z,4
2018-11-22T06:39:28.924Z,4
2018-11-22T06:40:37.557Z,8
2018-11-22T06:41:46.188Z,8
2018-11-22T06:42:54.826Z,8
2018-11-22T06:44:03.459Z,8
2018-11-22T06:45:12.356Z,12
2018-11-22T06:46:21.256Z,12
2018-11-22T06:47:29.897Z,12
2018-11-22T06:48:38.793Z,16
2018-11-22T06:49:47.431Z,16
2018-11-22T06:50:58.132Z,16
2018-11-22T06:52:04.703Z,16
2018-11-22T06:53:13.336Z,20
2018-11-22T06:54:22.231Z,20
2018-11-22T06:55:30.864Z,24
2018-11-22T06:56:39.501Z,28
2018-11-22T06:57:48.140Z,32
2018-11-22T06:58:56.776Z,36
2018-11-22T07:00:05.410Z,36
2018-11-22T07:01:14.042Z,36
2018-11-22T07:02:22.681Z,40
2018-11-22T07:03:31.315Z,48
2018-11-22T07:04:39.950Z,52
2018-11-22T07:05:48.589Z,52
2018-11-22T07:06:57.272Z,60
2018-11-22T07:08:05.867Z,64
2018-11-22T07:09:14.773Z,68
2018-11-22T07:10:23.402Z,76
2018-11-22T07:11:32.038Z,84
2018-11-22T07:12:40.679Z,88
2018-11-22T07:13:49.319Z,96
2018-11-22T07:14:57.953Z,100
2018-11-22T07:16:06.580Z,100
2018-11-22T07:17:15.220Z,104
2018-11-22T07:18:23.852Z,108
2018-11-22T07:19:32.499Z,116
2018-11-22T07:20:41.125Z,124
2018-11-22T07:21:50.029Z,128
2018-11-22T07:22:58.661Z,136
2018-11-22T07:24:07.307Z,144
2018-11-22T07:25:15.934Z,156
2018-11-22T07:26:24.569Z,160
2018-11-22T07:27:33.322Z,172
2018-11-22T07:28:41.845Z,176
2018-11-22T07:29:50.746Z,188
2018-11-22T07:30:59.373Z,196
2018-11-22T07:32:08.267Z,208
2018-11-22T07:33:16.903Z,216
2018-11-22T07:34:25.548Z,228
2018-11-22T07:35:34.180Z,244
2018-11-22T07:36:42.820Z,256
2018-11-22T07:37:51.449Z,272
2018-11-22T07:39:00.095Z,280
2018-11-22T07:40:08.726Z,300
2018-11-22T07:41:17.366Z,320
2018-11-22T07:42:25.992Z,336
2018-11-22T07:43:34.637Z,348
2018-11-22T07:44:43.538Z,360
2018-11-22T07:45:52.174Z,364
2018-11-22T07:47:00.801Z,372
2018-11-22T07:48:09.439Z,372
2018-11-22T07:49:18.079Z,372
2018-11-22T07:50:26.722Z,376
2018-11-22T07:51:35.354Z,380
2018-11-22T07:52:43.980Z,392
2018-11-22T07:53:52.614Z,404
2018-11-22T07:55:01.260Z,424
2018-11-22T07:56:09.905Z,452
2018-11-22T07:57:18.533Z,468
2018-11-22T07:58:27.181Z,480
2018-11-22T07:59:35.802Z,492
2018-11-22T08:00:44.446Z,496
2018-11-22T08:01:53.072Z,496
2018-11-22T08:03:01.718Z,504
2018-11-22T08:04:10.346Z,524
2018-11-22T08:05:19.557Z,544
2018-11-22T08:06:28.234Z,548
2018-11-22T08:07:36.862Z,552
2018-11-22T08:08:45.763Z,544
2018-11-22T08:09:54.397Z,532
2018-11-22T08:11:03.036Z,520
2018-11-22T08:12:12.206Z,512
2018-11-22T08:13:20.306Z,508
2018-11-22T08:14:28.937Z,516
2018-11-22T08:15:37.577Z,532
2018-11-22T08:16:46.213Z,568
2018-11-22T08:17:54.851Z,612
2018-11-22T08:19:03.488Z,676
2018-11-22T08:20:12.130Z,720
2018-11-22T08:21:20.763Z,752
2018-11-22T08:22:29.408Z,780
2018-11-22T08:23:38.040Z,784
2018-11-22T08:24:46.943Z,776
2018-11-22T08:25:55.845Z,784
2018-11-22T08:27:04.481Z,772
2018-11-22T08:28:13.116Z,760
2018-11-22T08:29:21.748Z,728
2018-11-22T08:30:30.385Z,704
2018-11-22T08:31:39.029Z,708
2018-11-22T08:32:52.567Z,756
2018-11-22T08:33:56.294Z,816
2018-11-22T08:35:04.931Z,864
2018-11-22T08:36:13.569Z,908
2018-11-22T08:37:22.470Z,932
2018-11-22T08:38:31.363Z,944
2018-11-22T08:39:40.003Z,940
2018-11-22T08:40:48.634Z,916
2018-11-22T08:41:57.274Z,896
2018-11-22T08:43:05.945Z,888
2018-11-22T08:44:14.541Z,900
2018-11-22T08:45:23.174Z,912
2018-11-22T08:46:32.070Z,928
2018-11-22T08:47:40.706Z,948
2018-11-22T08:48:49.349Z,976
2018-11-22T08:49:57.982Z,984
2018-11-22T08:51:06.615Z,976
2018-11-22T08:52:15.259Z,968
2018-11-22T08:53:23.895Z,960
2018-11-22T08:54:32.538Z,944
2018-11-22T08:55:41.168Z,932
2018-11-22T08:56:49.807Z,932
2018-11-22T08:57:58.441Z,932
2018-11-22T08:59:07.341Z,928
2018-11-22T09:00:15.973Z,936
2018-11-22T09:01:24.880Z,948
2018-11-22T09:02:33.513Z,964
2018-11-22T09:03:42.145Z,980
2018-11-22T09:04:50.812Z,1000
2018-11-22T09:05:59.503Z,1028
2018-11-22T09:07:08.190Z,1068
2018-11-22T09:08:17.125Z,1088
2018-11-22T09:09:25.846Z,1080
2018-11-22T09:10:34.530Z,1072
2018-11-22T09:11:43.205Z,1068
2018-11-22T09:12:51.895Z,1072
2018-11-22T09:14:00.828Z,1072
2018-11-22T09:15:09.513Z,1080
2018-11-22T09:16:18.451Z,1092
2018-11-22T09:17:27.388Z,1092
2018-11-22T09:18:36.071Z,1068
2018-11-22T09:19:44.750Z,1056
2018-11-22T09:20:53.428Z,1060
2018-11-22T09:22:02.376Z,1068
2018-11-22T09:23:11.055Z,1104
2018-11-22T09:24:26.339Z,1120
2018-11-22T09:25:35.533Z,1128
2018-11-22T09:26:44.213Z,1092
2018-11-22T09:27:52.893Z,1048
2018-11-22T09:29:01.571Z,1060
2018-11-22T09:30:10.257Z,1112
2018-11-22T09:31:19.203Z,1160
2018-11-22T09:32:27.885Z,1184
2018-11-22T09:33:36.559Z,1196
2018-11-22T09:34:45.244Z,1192
2018-11-22T09:35:53.921Z,1188
2018-11-22T09:37:02.859Z,1184
2018-11-22T09:38:11.539Z,1196
2018-11-22T09:39:20.214Z,1196
2018-11-22T09:40:29.390Z,1192
2018-11-22T09:41:38.071Z,1172
2018-11-22T09:42:47.259Z,1132
2018-11-22T09:43:55.937Z,1148
2018-11-22T09:45:04.617Z,1168
2018-11-22T09:46:13.547Z,1164
2018-11-22T09:47:22.237Z,1152
2018-11-22T09:48:31.271Z,1152
2018-11-22T09:49:40.543Z,1160
2018-11-22T09:50:49.280Z,1164
2018-11-22T09:51:57.958Z,1196
2018-11-22T09:53:06.629Z,1236
2018-11-22T09:54:15.298Z,1280
2018-11-22T09:55:23.964Z,1316
2018-11-22T09:56:32.636Z,1340
2018-11-22T09:57:41.303Z,1348
2018-11-22T09:58:49.967Z,1320
2018-11-22T09:59:58.744Z,1296
2018-11-22T10:01:07.437Z,1272
2018-11-22T10:02:16.116Z,1280
2018-11-22T10:03:25.050Z,1272
2018-11-22T10:04:33.932Z,1248
2018-11-22T10:05:43.202Z,1224
2018-11-22T10:06:52.578Z,1192
2018-11-22T10:08:01.323Z,1184
2018-11-22T10:09:10.469Z,1200
2018-11-22T10:10:19.270Z,1216
2018-11-22T10:11:27.965Z,1244
2018-11-22T10:12:37.288Z,1288
2018-11-22T10:13:46.725Z,1320
2018-11-22T10:14:55.655Z,1332
2018-11-22T10:16:04.334Z,1336
2018-11-22T10:17:14.249Z,1312
2018-11-22T10:18:23.040Z,1308
2018-11-22T10:19:31.808Z,1328
2018-11-22T10:20:40.527Z,1356
2018-11-22T10:21:49.477Z,1380
2018-11-22T10:22:58.148Z,1368
2018-11-22T10:24:07.191Z,1348
2018-11-22T10:25:16.211Z,1420
2018-11-22T10:26:24.897Z,1436
2018-11-22T10:27:33.820Z,1428
2018-11-22T10:28:42.508Z,1436
2018-11-22T10:29:51.190Z,1448
2018-11-22T10:30:59.877Z,1440
2018-11-22T10:32:08.550Z,1428
2018-11-22T10:33:17.239Z,1428
2018-11-22T10:34:26.262Z,1424
2018-11-22T10:35:34.977Z,1424
2018-11-22T10:36:43.928Z,1416
2018-11-22T10:37:53.555Z,1428
2018-11-22T10:39:03.211Z,1440
2018-11-22T10:40:12.630Z,1464
2018-11-22T10:41:21.837Z,1496
2018-11-22T10:42:30.793Z,1520
2018-11-22T10:43:40.320Z,1520
2018-11-22T10:44:49.260Z,1508
2018-11-22T10:45:57.983Z,1492
2018-11-22T10:47:06.656Z,1472
2018-11-22T10:48:15.380Z,1456
2018-11-22T10:49:24.316Z,1444
2018-11-22T10:50:33.008Z,1468
2018-11-22T10:51:41.685Z,1472
2018-11-22T10:52:50.610Z,1444
2018-11-22T10:53:59.283Z,1408
2018-11-22T10:55:08.114Z,1384
2018-11-22T10:56:17.336Z,1392
2018-11-22T10:57:26.072Z,1396
2018-11-22T10:58:34.938Z,1420
2018-11-22T10:59:43.616Z,1452
2018-11-22T11:00:52.460Z,1444
2018-11-22T11:02:01.159Z,1440
2018-11-22T11:03:10.032Z,1396
2018-11-22T11:04:18.823Z,1360
2018-11-22T11:05:27.701Z,1360
2018-11-22T11:06:36.440Z,1400
2018-11-22T11:07:45.768Z,1444
2018-11-22T11:08:54.446Z,1476
2018-11-22T11:10:03.398Z,1480
2018-11-22T11:11:12.990Z,1480
2018-11-22T11:12:27.740Z,1484
2018-11-22T11:13:37.234Z,1472
2018-11-22T11:14:46.197Z,1456
2018-11-22T11:15:54.894Z,1460
2018-11-22T11:17:03.837Z,1456
2018-11-22T11:18:12.775Z,1444
2018-11-22T11:19:21.467Z,1428
2018-11-22T11:20:30.154Z,1416
2018-11-22T11:21:38.834Z,1432
2018-11-22T11:22:47.994Z,1452
2018-11-22T11:23:56.676Z,1444
2018-11-22T11:25:05.365Z,1424
2018-11-22T11:26:14.295Z,1416
2018-11-22T11:27:23.489Z,1440
2018-11-22T11:28:32.162Z,1452
2018-11-22T11:29:40.842Z,1460
2018-11-22T11:30:49.523Z,1416
2018-11-22T11:31:58.459Z,1416
2018-11-22T11:33:07.150Z,1392
2018-11-22T11:34:15.835Z,1332
2018-11-22T11:35:24.523Z,1312
2018-11-22T11:36:33.462Z,1344
2018-11-22T11:37:42.144Z,1404
2018-11-22T11:38:50.827Z,1460
2018-11-22T11:40:05.258Z,1524
2018-11-22T11:41:14.190Z,1568
2018-11-22T11:42:23.126Z,1584
2018-11-22T11:43:31.804Z,1588
2018-11-22T11:44:40.477Z,1560
2018-11-22T11:45:49.150Z,1504
2018-11-22T11:46:57.835Z,1488
2018-11-22T11:48:06.518Z,1548
2018-11-22T11:49:15.447Z,1576
2018-11-22T11:50:24.384Z,1592
2018-11-22T11:51:33.055Z,1568
2018-11-22T11:52:41.733Z,1536
2018-11-22T11:53:50.413Z,1484
2018-11-22T11:54:59.099Z,1376
2018-11-22T11:56:08.284Z,1368
2018-11-22T11:57:17.217Z,1376
2018-11-22T11:58:26.412Z,1424
2018-11-22T11:59:35.096Z,1432
2018-11-22T12:00:43.766Z,1412
2018-11-22T12:01:52.447Z,1380
2018-11-22T12:03:01.240Z,1348
2018-11-22T12:04:10.021Z,1356
2018-11-22T12:05:18.792Z,1348
2018-11-22T12:06:27.722Z,1332
2018-11-22T12:07:36.914Z,1348
2018-11-22T12:08:45.801Z,1368
2018-11-22T12:10:00.664Z,1388
2018-11-22T12:11:09.583Z,1384
2018-11-22T12:12:18.402Z,1352
2018-11-22T12:13:27.068Z,1316
2018-11-22T12:14:35.755Z,1288
2018-11-22T12:15:44.436Z,1240
2018-11-22T12:16:53.124Z,1180
2018-11-22T12:18:02.072Z,1112
2018-11-22T12:19:10.759Z,1060
2018-11-22T12:20:19.682Z,1052
2018-11-22T12:21:28.631Z,1056
2018-11-22T12:22:37.554Z,1052
2018-11-22T12:23:46.240Z,1044
2018-11-22T12:24:55.359Z,1052
2018-11-22T12:26:04.052Z,1076
2018-11-22T12:27:12.776Z,1072
2018-11-22T12:28:21.452Z,1048
2018-11-22T12:29:30.432Z,1016
2018-11-22T12:30:39.371Z,1008
2018-11-22T12:31:48.067Z,1008
2018-11-22T12:32:57.001Z,1024
2018-11-22T12:34:06.198Z,1040
2018-11-22T12:35:15.133Z,1056
2018-11-22T12:36:23.825Z,1072
2018-11-22T12:37:32.500Z,1068
2018-11-22T12:38:41.232Z,1072
2018-11-22T12:39:50.197Z,1064
2018-11-22T12:40:59.138Z,1052
2018-11-22T12:42:07.819Z,1044
2018-11-22T12:43:16.495Z,1040
2018-11-22T12:44:25.195Z,1032
2018-11-22T12:45:34.372Z,1052
2018-11-22T12:46:43.059Z,1084
2018-11-22T12:47:52.039Z,1068
2018-11-22T12:49:00.724Z,1052
2018-11-22T12:50:09.405Z,1048
2018-11-22T12:51:18.358Z,1056
2018-11-22T12:52:27.038Z,1040
2018-11-22T12:53:35.995Z,1008
2018-11-22T12:54:44.668Z,1008
2018-11-22T12:55:53.397Z,1012
2018-11-22T12:57:02.336Z,1036
2018-11-22T12:58:11.568Z,1020
2018-11-22T12:59:20.512Z,988
2018-11-22T13:00:29.376Z,948
2018-11-22T13:01:38.186Z,884
2018-11-22T13:02:47.048Z,860
2018-11-22T13:03:55.731Z,844
2018-11-22T13:05:04.761Z,836
2018-11-22T13:06:13.767Z,840
2018-11-22T13:07:22.841Z,848
2018-11-22T13:08:31.609Z,852
2018-11-22T13:09:40.354Z,832
2018-11-22T13:10:49.355Z,692
2018-11-22T13:11:58.063Z,660
2018-11-22T13:13:06.990Z,732
2018-11-22T13:14:15.731Z,796
2018-11-22T13:15:24.744Z,796
2018-11-22T13:16:33.947Z,776
2018-11-22T13:17:42.883Z,748
2018-11-22T13:18:51.821Z,744
2018-11-22T13:20:05.936Z,756
2018-11-22T13:21:14.624Z,756
2018-11-22T13:22:23.837Z,736
2018-11-22T13:23:33.018Z,724
2018-11-22T13:24:41.702Z,720
2018-11-22T13:25:50.382Z,720
2018-11-22T13:26:59.339Z,732
2018-11-22T13:28:08.012Z,740
2018-11-22T13:29:16.703Z,708
2018-11-22T13:30:25.427Z,704
2018-11-22T13:31:34.122Z,716
2018-11-22T13:32:42.793Z,728
2018-11-22T13:33:51.481Z,760
2018-11-22T13:35:00.417Z,764
2018-11-22T13:36:09.108Z,776
2018-11-22T13:37:17.784Z,788
2018-11-22T13:38:26.710Z,808
2018-11-22T13:39:35.399Z,804
2018-11-22T13:40:44.585Z,772
2018-11-22T13:41:53.532Z,728
2018-11-22T13:43:02.227Z,716
2018-11-22T13:44:11.171Z,756
2018-11-22T13:45:20.422Z,788
2018-11-22T13:46:29.800Z,760
2018-11-22T13:47:39.240Z,728
2018-11-22T13:48:49.557Z,744
2018-11-22T13:49:58.886Z,720
2018-11-22T13:51:07.594Z,652
2018-11-22T13:52:16.528Z,596
2018-11-22T13:53:27.148Z,544
2018-11-22T13:54:35.816Z,516
2018-11-22T13:55:44.499Z,500
2018-11-22T13:56:53.178Z,496
2018-11-22T13:58:01.858Z,492
2018-11-22T13:59:10.802Z,488
2018-11-22T14:00:20.281Z,484
2018-11-22T14:01:29.217Z,488
2018-11-22T14:02:37.892Z,496
2018-11-22T14:03:46.575Z,508
2018-11-22T14:04:55.254Z,524
2018-11-22T14:06:04.441Z,548
2018-11-22T14:07:13.375Z,536
2018-11-22T14:08:22.061Z,508
2018-11-22T14:09:30.735Z,452
2018-11-22T14:10:39.425Z,396
2018-11-22T14:11:48.112Z,376
2018-11-22T14:12:56.797Z,384
2018-11-22T14:14:05.731Z,384
2018-11-22T14:15:14.406Z,360
2018-11-22T14:16:23.092Z,352
2018-11-22T14:17:32.026Z,348
2018-11-22T14:18:40.959Z,348
2018-11-22T14:19:49.894Z,344
2018-11-22T14:20:58.581Z,336
2018-11-22T14:22:07.542Z,332
2018-11-22T14:23:16.476Z,324
2018-11-22T14:24:25.411Z,320
2018-11-22T14:25:34.094Z,312
2018-11-22T14:26:43.031Z,304
2018-11-22T14:27:51.713Z,296
2018-11-22T14:29:00.399Z,292
2018-11-22T14:30:09.086Z,292
2018-11-22T14:31:17.773Z,296
2018-11-22T14:32:26.459Z,300
2018-11-22T14:33:35.388Z,300
2018-11-22T14:34:44.075Z,304
2018-11-22T14:35:53.277Z,300
2018-11-22T14:37:01.947Z,296
2018-11-22T14:38:10.626Z,296
2018-11-22T14:39:19.306Z,292
2018-11-22T14:40:28.375Z,288
2018-11-22T14:41:37.057Z,280
2018-11-22T14:42:46.004Z,272
2018-11-22T14:43:54.679Z,264
2018-11-22T14:45:03.364Z,256
2018-11-22T14:46:12.297Z,248
2018-11-22T14:47:20.977Z,244
2018-11-22T14:48:29.918Z,236
2018-11-22T14:49:38.612Z,228
2018-11-22T14:50:47.292Z,220
2018-11-22T14:51:55.972Z,212
2018-11-22T14:53:04.649Z,208
2018-11-22T14:54:13.324Z,204
2018-11-22T14:55:22.020Z,200
2018-11-22T14:56:30.702Z,200
2018-11-22T14:57:39.638Z,196
2018-11-22T14:58:48.827Z,196
2018-11-22T14:59:57.515Z,192
2018-11-22T15:01:07.244Z,184
2018-11-22T15:02:16.224Z,184
2018-11-22T15:03:24.895Z,184
2018-11-22T15:04:33.586Z,180
2018-11-22T15:05:42.515Z,176
2018-11-22T15:06:51.193Z,168
2018-11-22T15:07:59.888Z,160
2018-11-22T15:09:08.818Z,152
2018-11-22T15:10:17.506Z,148
2018-11-22T15:11:26.191Z,140
2018-11-22T15:12:34.876Z,136
2018-11-22T15:13:43.546Z,132
2018-11-22T15:14:52.226Z,128
2018-11-22T15:16:00.899Z,124
2018-11-22T15:17:09.590Z,116
2018-11-22T15:18:18.258Z,112
2018-11-22T15:19:26.939Z,108
2018-11-22T15:20:35.618Z,104
2018-11-22T15:21:44.819Z,96
2018-11-22T15:22:53.744Z,88
2018-11-22T15:24:02.437Z,84
2018-11-22T15:25:11.395Z,80
2018-11-22T15:26:20.339Z,72
2018-11-22T15:27:29.014Z,68
2018-11-22T15:28:37.695Z,60
2018-11-22T15:29:46.371Z,60
2018-11-22T15:30:55.568Z,52
2018-11-22T15:32:04.258Z,48
2018-11-22T15:33:13.450Z,44
2018-11-22T15:34:22.387Z,40
2018-11-22T15:35:31.326Z,36
2018-11-22T15:36:40.046Z,32
2018-11-22T15:37:48.720Z,32
2018-11-22T15:38:57.651Z,28
2018-11-22T15:40:06.627Z,24
2018-11-22T15:41:15.842Z,20
2018-11-22T15:42:24.521Z,20
2018-11-22T15:43:33.198Z,16
2018-11-22T15:44:41.872Z,16
2018-11-22T15:45:50.551Z,12
2018-11-22T15:46:59.235Z,8
2018-11-22T15:48:07.917Z,8
2018-11-22T15:49:16.599Z,8
2018-11-22T15:50:25.527Z,8
2018-11-22T15:51:34.213Z,4
2018-11-22T15:52:42.885Z,4
2018-11-22T15:53:51.829Z,0
2018-11-22T15:55:00.502Z,4
2018-11-22T15:56:09.195Z,0
2018-11-22T15:57:18.449Z,0
2018-11-22T15:58:27.133Z,4
2018-11-22T15:59:35.816Z,0
2018-11-22T16:00:44.756Z,0
2018-11-22T16:01:53.698Z,0
2018-11-22T16:03:02.655Z,0
2018-11-22T16:04:11.589Z,0
2018-11-22T16:05:20.522Z,0
2018-11-22T16:06:29.203Z,0
2018-11-22T16:07:37.924Z,0
2018-11-22T16:08:46.974Z,0
2018-11-22T16:09:55.690Z,0
2018-11-22T16:11:04.625Z,0